Time;durP1;ratioP1;P1;durP2;ratioP2;P2;SDS_P1;SDS_P2;PMS_P1;PMS_P2;Temp;Humidity;BMP_temperature;BMP_pressure;BME280_temperature;BME280_humidity;BME280_pressure;Samples;Min_cycle;Max_cycle;Signal;HPM_P1;HPM_P2
2022/08/20 00:00:27;;;;;;;19.13;12.52;;;20.40;95.10;;;;;;5055868;28;20037;-64
2022/08/20 00:02:59;;;;;;;18.02;12.73;;;20.40;95.10;;;;;;5073413;28;20024;-65
2022/08/20 00:05:29;;;;;;;17.88;11.80;;;20.40;95.10;;;;;;5073500;28;20032;-64
2022/08/20 00:07:55;;;;;;;14.68;10.80;;;20.40;95.10;;;;;;5054985;28;20036;-64
2022/08/20 00:10:21;;;;;;;13.45;9.57;;;20.40;95.10;;;;;;5055255;28;20028;-64
2022/08/20 00:12:49;;;;;;;16.90;9.05;;;20.40;95.10;;;;;;5058807;28;20036;-64
2022/08/20 00:15:20;;;;;;;11.10;7.43;;;20.40;95.10;;;;;;5053884;28;20079;-64
2022/08/20 00:17:50;;;;;;;9.60;7.20;;;20.30;95.10;;;;;;5035192;28;20065;-64
2022/08/20 00:20:17;;;;;;;8.95;6.60;;;20.40;95.10;;;;;;5035919;28;20060;-64
2022/08/20 00:22:43;;;;;;;10.55;7.25;;;20.40;95.10;;;;;;5053589;28;20033;-64
2022/08/20 00:25:10;;;;;;;12.73;7.68;;;20.40;95.10;;;;;;5053564;28;20021;-65
2022/08/20 00:27:35;;;;;;;11.95;7.15;;;20.40;95.10;;;;;;5053147;28;20067;-64
2022/08/20 00:30:04;;;;;;;9.95;5.93;;;20.30;95.10;;;;;;5052953;28;20072;-64
2022/08/20 00:32:30;;;;;;;10.10;5.70;;;20.30;95.10;;;;;;5053003;28;20111;-64
2022/08/20 00:34:55;;;;;;;7.63;5.43;;;20.30;95.10;;;;;;5035079;28;20059;-64
2022/08/20 00:37:21;;;;;;;7.70;5.50;;;20.30;95.10;;;;;;5053223;28;20048;-64
2022/08/20 00:39:47;;;;;;;10.13;5.70;;;20.30;95.10;;;;;;5052715;28;20017;-64
2022/08/20 00:42:12;;;;;;;9.07;5.68;;;20.30;95.20;;;;;;5060197;28;20105;-64
2022/08/20 00:44:45;;;;;;;7.63;5.28;;;20.30;95.20;;;;;;5054926;28;20065;-64
2022/08/20 00:47:10;;;;;;;10.48;5.20;;;20.30;95.20;;;;;;5073001;28;20032;-64
2022/08/20 00:49:36;;;;;;;7.05;5.22;;;20.40;95.20;;;;;;5054760;28;20028;-64
2022/08/20 00:52:11;;;;;;;16.13;5.75;;;20.30;95.20;;;;;;5055061;28;20021;-64
2022/08/20 00:54:40;;;;;;;10.43;5.05;;;20.30;95.20;;;;;;5073266;28;20063;-64
2022/08/20 05:14:48;;;;;;;4.72;2.80;;;20.00;95.60;;;;;;5072214;28;20409;-69
2022/08/20 07:52:20;;;;;;;4.47;2.95;;;20.30;95.30;;;;;;5102799;28;20108;-64
2022/08/20 07:54:46;;;;;;;9.00;3.47;;;20.30;95.30;;;;;;5102339;28;20520;-64
2022/08/20 07:57:17;;;;;;;4.63;3.17;;;20.40;95.40;;;;;;5102758;28;20055;-65
2022/08/20 07:59:45;;;;;;;5.07;3.00;;;20.40;95.40;;;;;;5095889;28;20027;-64
2022/08/20 08:02:11;;;;;;;5.88;3.05;;;20.40;95.40;;;;;;5101654;28;20035;-64
2022/08/20 08:04:37;;;;;;;3.08;2.72;;;20.40;95.40;;;;;;5144124;27;20042;-64
2022/08/20 08:07:03;;;;;;;4.88;2.95;;;20.40;95.40;;;;;;5147069;27;20050;-64
2022/08/20 08:09:29;;;;;;;6.07;3.05;;;20.40;95.40;;;;;;5146627;27;20026;-64
2022/08/20 08:11:57;;;;;;;5.05;2.90;;;20.40;95.30;;;;;;5145348;27;20035;-64
2022/08/20 08:14:28;;;;;;;3.28;2.28;;;20.50;95.40;;;;;;5145537;27;20019;-64
2022/08/20 08:16:56;;;;;;;;;;;20.50;95.40;;;;;;5146514;27;20038;-64
2022/08/20 08:19:23;;;;;;;4.03;2.40;;;20.50;95.50;;;;;;5146645;27;19907;-64
2022/08/20 08:21:49;;;;;;;3.22;2.50;;;20.50;95.60;;;;;;5146127;27;20023;-64
2022/08/20 08:24:16;;;;;;;2.95;2.65;;;20.50;95.60;;;;;;5131550;27;20163;-65
2022/08/20 08:26:43;;;;;;;4.40;2.85;;;20.50;95.60;;;;;;5133169;27;20023;-64
2022/08/20 08:32:31;;;;;;;5.38;2.70;;;20.60;95.70;;;;;;5099516;22;20512;-68
2022/08/20 08:34:57;;;;;;;4.25;3.13;;;20.60;95.70;;;;;;5071369;28;20788;-68
2022/08/20 08:37:23;;;;;;;6.30;3.38;;;20.70;95.70;;;;;;5071915;28;20031;-68
2022/08/20 08:39:49;;;;;;;3.63;3.08;;;20.70;95.70;;;;;;5071417;28;20028;-68
2022/08/20 08:42:27;;;;;;;5.07;3.42;;;20.70;95.80;;;;;;5063761;28;20029;-68
2022/08/20 08:44:53;;;;;;;4.88;3.08;;;20.70;95.80;;;;;;5070555;28;20028;-68
2022/08/20 08:47:34;;;;;;;5.38;2.97;;;20.80;95.90;;;;;;5071548;28;20013;-68
2022/08/20 08:50:01;;;;;;;2.97;2.67;;;20.80;95.90;;;;;;5071704;28;20120;-68
2022/08/20 08:52:30;;;;;;;3.50;2.65;;;20.80;96.00;;;;;;5070624;28;20591;-68
2022/08/20 08:55:00;;;;;;;4.40;2.63;;;20.80;96.10;;;;;;5069636;28;20051;-69
2022/08/20 08:57:29;;;;;;;3.70;2.65;;;20.80;96.20;;;;;;5071597;28;20017;-68
2022/08/20 09:00:15;;;;;;;3.60;2.83;;;20.80;96.20;;;;;;5069704;28;20029;-68
2022/08/20 09:03:03;;;;;;;5.15;2.47;;;20.90;96.30;;;;;;5070761;28;20021;-68
2022/08/20 09:05:45;;;;;;;5.70;3.28;;;20.80;96.30;;;;;;5065077;28;20029;-68
2022/08/20 09:08:14;;;;;;;6.95;2.60;;;20.90;96.60;;;;;;5070398;28;20024;-68
2022/08/20 09:10:41;;;;;;;2.28;2.10;;;20.90;96.30;;;;;;5070825;28;20096;-68
2022/08/20 09:13:07;;;;;;;6.05;2.33;;;20.90;96.40;;;;;;5070457;28;20053;-68
2022/08/20 09:15:33;;;;;;;3.58;2.20;;;20.90;96.40;;;;;;5069623;28;20032;-68
2022/08/20 09:17:59;;;;;;;3.00;2.40;;;20.90;96.40;;;;;;5070726;28;20039;-68
2022/08/20 09:20:25;;;;;;;2.20;2.00;;;20.90;96.40;;;;;;5070365;28;20544;-68
2022/08/20 09:22:50;;;;;;;2.28;2.08;;;21.00;96.40;;;;;;5069871;28;20021;-68
2022/08/20 09:25:17;;;;;;;3.58;2.22;;;20.90;96.30;;;;;;5070538;28;20064;-68
2022/08/20 09:27:42;;;;;;;2.45;1.98;;;21.00;96.30;;;;;;5070919;28;20538;-68
2022/08/20 09:30:10;;;;;;;3.38;2.10;;;21.00;96.30;;;;;;5068756;28;20024;-68
2022/08/20 09:32:38;;;;;;;6.72;2.45;;;21.00;96.30;;;;;;5070412;28;20032;-68
2022/08/20 09:35:09;;;;;;;2.10;1.92;;;21.00;96.30;;;;;;5069344;28;20024;-68
2022/08/20 09:37:35;;;;;;;3.60;2.42;;;21.00;96.30;;;;;;5070284;28;20047;-68
2022/08/20 09:55:52;;;;;;;2.63;2.10;;;21.00;95.80;;;;;;5146374;27;20389;-65
2022/08/20 09:58:26;;;;;;;2.30;2.05;;;21.10;95.80;;;;;;5126908;27;20039;-66
2022/08/20 10:00:52;;;;;;;2.35;1.85;;;21.10;95.90;;;;;;5123771;27;20030;-66
2022/08/20 10:03:18;;;;;;;2.05;1.88;;;21.20;95.90;;;;;;5123890;27;20035;-66
2022/08/20 10:05:44;;;;;;;2.38;2.03;;;21.20;95.90;;;;;;5124648;27;20103;-66
2022/08/20 10:08:10;;;;;;;3.47;2.10;;;21.20;95.90;;;;;;5123992;28;20410;-66
2022/08/20 10:10:36;;;;;;;2.75;2.05;;;21.10;95.80;;;;;;5124810;27;20548;-66
2022/08/20 10:13:02;;;;;;;2.28;1.85;;;21.20;95.90;;;;;;5124846;27;20095;-66
2022/08/20 10:15:32;;;;;;;2.75;2.38;;;21.20;95.80;;;;;;5122372;27;20034;-66
2022/08/20 10:18:04;;;;;;;2.72;1.90;;;21.20;95.70;;;;;;5125025;27;20035;-66
2022/08/20 10:20:29;;;;;;;2.83;1.92;;;21.20;95.60;;;;;;5125088;28;20035;-66
2022/08/20 10:22:55;;;;;;;4.85;2.55;;;21.20;95.50;;;;;;5126488;27;20031;-66
2022/08/20 10:25:21;;;;;;;3.75;2.35;;;21.20;95.40;;;;;;5125829;27;20043;-70
2022/08/20 10:27:46;;;;;;;2.88;2.13;;;21.20;95.40;;;;;;5126815;27;20370;-63
2022/08/20 10:30:12;;;;;;;4.00;2.45;;;21.20;95.40;;;;;;5124780;27;20102;-65
2022/08/20 10:32:38;;;;;;;5.60;2.28;;;21.20;95.30;;;;;;5119032;27;20051;-65
2022/08/20 10:35:04;;;;;;;4.15;2.28;;;21.20;95.30;;;;;;5124654;27;20498;-65
2022/08/20 10:37:30;;;;;;;4.25;2.45;;;21.20;95.30;;;;;;5121547;28;20084;-66
2022/08/20 10:39:56;;;;;;;3.28;2.20;;;21.20;95.40;;;;;;5125515;27;20491;-65
2022/08/20 10:42:21;;;;;;;4.65;3.08;;;21.20;95.40;;;;;;5126032;27;20027;-65
2022/08/20 10:44:47;;;;;;;4.25;2.60;;;21.20;95.40;;;;;;5123444;27;20050;-65
2022/08/20 10:47:20;;;;;;;7.07;2.50;;;21.20;95.40;;;;;;5123596;28;20019;-65
2022/08/20 10:49:46;;;;;;;2.20;1.85;;;21.20;95.40;;;;;;5117071;28;20234;-66
2022/08/20 10:52:12;;;;;;;4.55;1.80;;;21.30;95.30;;;;;;5124940;27;20024;-65
2022/08/20 10:54:40;;;;;;;6.07;2.08;;;21.30;95.30;;;;;;5121464;28;20042;-65
2022/08/20 10:57:08;;;;;;;2.10;1.90;;;21.30;95.30;;;;;;5111631;28;20052;-65
2022/08/20 10:59:41;;;;;;;2.65;2.25;;;21.30;95.30;;;;;;5110760;27;20066;-65
2022/08/20 11:02:06;;;;;;;6.07;2.33;;;21.30;95.30;;;;;;5111043;28;20059;-65
2022/08/20 11:04:32;;;;;;;3.00;2.05;;;21.30;95.20;;;;;;5109672;28;20078;-65
2022/08/20 11:07:08;;;;;;;3.60;2.13;;;21.30;95.10;;;;;;5111724;28;20016;-65
2022/08/20 11:09:33;;;;;;;2.53;2.03;;;21.30;95.10;;;;;;5111516;28;20035;-65
2022/08/20 11:11:59;;;;;;;6.15;1.80;;;21.30;95.10;;;;;;5111757;28;20024;-65
2022/08/20 11:14:27;;;;;;;2.50;1.90;;;21.30;95.10;;;;;;5109539;28;20103;-66
2022/08/20 11:16:53;;;;;;;2.83;2.10;;;21.30;95.10;;;;;;5108745;28;20491;-66
2022/08/20 11:19:18;;;;;;;3.42;2.08;;;21.30;95.00;;;;;;5110199;28;20023;-65
2022/08/20 11:21:44;;;;;;;2.95;2.35;;;21.30;95.10;;;;;;5110627;28;20436;-65
2022/08/20 12:07:51;;;;;;;3.47;2.55;;;21.20;95.40;;;;;;5110878;28;20116;-63
2022/08/20 12:10:17;;;;;;;2.90;2.45;;;21.20;95.60;;;;;;5110865;28;20088;-64
2022/08/20 12:12:43;;;;;;;4.00;2.78;;;21.20;95.60;;;;;;5110284;28;20031;-64
2022/08/20 12:15:09;;;;;;;5.32;3.40;;;21.20;95.70;;;;;;5109431;28;20540;-63
2022/08/20 12:17:36;;;;;;;3.22;2.78;;;21.20;95.70;;;;;;5109865;28;20032;-63
2022/08/20 12:26:56;;;;;;;8.30;3.13;;;21.10;95.80;;;;;;5107255;28;20030;-63
2022/08/20 12:29:21;;;;;;;5.80;1.88;;;21.20;95.90;;;;;;5110745;28;20024;-64
2022/08/20 12:31:47;;;;;;;13.43;2.58;;;21.10;96.00;;;;;;5108948;28;20046;-64
2022/08/20 12:34:12;;;;;;;10.25;2.30;;;21.10;96.10;;;;;;5106199;28;20024;-64
2022/08/20 12:36:41;;;;;;;3.67;1.60;;;21.10;96.20;;;;;;5109757;28;20066;-64
2022/08/20 14:08:41;;;;;;;1.70;1.30;;;20.80;95.50;;;;;;5108376;28;20074;-65
2022/08/20 14:11:07;;;;;;;2.35;1.20;;;20.80;95.50;;;;;;5104086;28;20488;-64
2022/08/20 14:13:32;;;;;;;1.50;1.17;;;20.80;95.40;;;;;;5107473;28;20012;-64
2022/08/20 14:15:58;;;;;;;1.52;1.00;;;20.80;95.30;;;;;;5105786;28;20390;-64
2022/08/20 14:18:24;;;;;;;1.48;1.20;;;20.80;95.30;;;;;;5103941;28;20023;-64
2022/08/20 14:20:50;;;;;;;1.45;0.93;;;20.80;95.20;;;;;;5106678;28;20031;-69
2022/08/20 14:23:15;;;;;;;1.48;1.00;;;20.80;95.40;;;;;;5104156;28;20024;-64
2022/08/20 14:25:45;;;;;;;1.70;1.20;;;20.90;95.50;;;;;;5107129;28;20525;-64
2022/08/20 14:28:22;;;;;;;3.30;1.10;;;20.90;95.70;;;;;;5106131;28;20030;-64
2022/08/20 14:30:48;;;;;;;2.40;1.13;;;20.90;95.70;;;;;;5107144;28;20051;-65
2022/08/20 14:33:14;;;;;;;3.08;1.00;;;20.80;95.70;;;;;;5108451;28;20471;-64
2022/08/20 14:35:40;;;;;;;1.13;1.00;;;20.90;95.80;;;;;;5110863;28;20047;-64
2022/08/20 14:38:06;;;;;;;2.47;1.33;;;20.90;95.70;;;;;;5119243;27;20027;-64
2022/08/20 14:40:33;;;;;;;1.98;1.50;;;20.90;95.80;;;;;;5112024;28;20027;-64
2022/08/20 14:42:58;;;;;;;2.67;0.98;;;20.90;95.80;;;;;;5112397;28;20027;-64
2022/08/20 14:45:24;;;;;;;1.73;1.05;;;20.90;95.90;;;;;;5110640;28;20387;-64
2022/08/20 14:47:52;;;;;;;2.50;1.10;;;20.90;96.00;;;;;;5111145;28;20069;-64
2022/08/20 14:50:24;;;;;;;1.58;1.00;;;20.90;96.00;;;;;;5111532;28;20026;-64
2022/08/20 14:52:51;;;;;;;1.25;0.80;;;20.90;96.10;;;;;;5111362;28;20074;-65
2022/08/20 14:55:19;;;;;;;2.17;1.00;;;20.90;96.10;;;;;;5102534;28;20062;-63
2022/08/20 14:57:45;;;;;;;1.08;0.90;;;20.90;96.20;;;;;;5112296;28;20024;-66
2022/08/20 15:00:18;;;;;;;1.58;1.13;;;21.00;96.30;;;;;;5111331;28;20099;-64
2022/08/20 15:02:45;;;;;;;1.73;0.80;;;20.90;96.30;;;;;;5112172;28;20564;-64
2022/08/20 15:05:12;;;;;;;1.10;1.00;;;20.90;96.50;;;;;;5109794;28;20032;-64
2022/08/20 15:07:40;;;;;;;1.15;0.90;;;20.90;96.50;;;;;;5111423;28;20024;-64
2022/08/20 15:10:13;;;;;;;2.90;0.80;;;20.90;96.50;;;;;;5111795;28;20270;-64
2022/08/20 15:12:39;;;;;;;0.98;0.90;;;21.00;96.60;;;;;;5112600;28;20034;-65
2022/08/20 15:15:07;;;;;;;4.10;1.02;;;20.90;96.60;;;;;;5110156;28;20028;-64
2022/08/20 15:17:33;;;;;;;1.67;0.90;;;20.90;96.70;;;;;;5111550;28;20024;-64
2022/08/20 15:20:08;;;;;;;0.95;0.85;;;20.90;96.70;;;;;;5109849;28;20487;-64
2022/08/20 15:22:34;;;;;;;1.95;1.00;;;20.90;96.70;;;;;;5111513;28;20061;-64
2022/08/20 15:25:01;;;;;;;1.55;0.90;;;20.90;96.80;;;;;;5110908;28;20460;-64
2022/08/20 15:27:27;;;;;;;1.33;0.90;;;20.90;96.80;;;;;;5112634;28;20043;-64
2022/08/20 15:29:53;;;;;;;5.35;0.90;;;20.90;96.90;;;;;;5111498;28;20035;-65
2022/08/20 15:33:14;;;;;;;0.80;0.80;;;21.00;97.00;;;;;;5114495;28;20082;-64
2022/08/20 15:35:39;;;;;;;7.47;0.77;;;21.00;97.00;;;;;;5114924;28;20024;-64
2022/08/20 15:38:05;;;;;;;0.73;0.73;;;20.90;97.00;;;;;;5111572;28;20543;-64
2022/08/20 15:40:32;;;;;;;1.13;0.70;;;21.00;97.00;;;;;;5111247;28;20023;-64
2022/08/20 15:42:59;;;;;;;0.80;0.80;;;21.00;97.10;;;;;;5111584;28;20020;-65
2022/08/20 15:45:26;;;;;;;1.15;1.05;;;20.90;97.10;;;;;;5110720;28;20038;-64
2022/08/20 15:48:11;;;;;;;1.30;0.82;;;21.00;97.20;;;;;;5111437;28;20024;-64
2022/08/20 15:50:49;;;;;;;1.08;1.08;;;20.90;97.20;;;;;;5109756;28;20020;-64
2022/08/20 15:53:30;;;;;;;2.75;0.90;;;21.00;97.30;;;;;;5111079;28;20032;-64
2022/08/20 15:56:10;;;;;;;4.72;1.02;;;20.90;97.30;;;;;;5111307;28;20023;-64
2022/08/20 15:58:48;;;;;;;1.15;1.00;;;20.90;97.40;;;;;;5104299;28;20023;-64
2022/08/20 16:01:35;;;;;;;1.13;1.02;;;20.90;97.40;;;;;;5110759;28;20113;-64
2022/08/20 16:04:20;;;;;;;1.08;1.00;;;20.90;97.40;;;;;;5109816;28;20035;-65
2022/08/20 16:06:48;;;;;;;3.08;1.20;;;20.90;97.50;;;;;;5111027;28;20407;-64
2022/08/20 16:09:36;;;;;;;2.00;1.10;;;21.00;97.50;;;;;;5110835;28;20034;-64
2022/08/20 16:12:07;;;;;;;1.20;1.08;;;21.00;97.50;;;;;;5110856;28;20476;-64
2022/08/20 16:14:39;;;;;;;1.20;1.10;;;20.90;97.40;;;;;;5109981;28;20027;-64
2022/08/20 16:17:15;;;;;;;1.55;1.10;;;20.90;97.40;;;;;;5110632;28;20015;-66
2022/08/20 16:20:00;;;;;;;1.13;1.00;;;20.90;97.40;;;;;;5109620;28;20446;-65
2022/08/20 16:22:28;;;;;;;2.00;1.50;;;20.90;97.30;;;;;;5110313;28;20039;-66
2022/08/20 16:24:55;;;;;;;3.35;2.22;;;21.00;97.30;;;;;;5110037;28;20387;-66
2022/08/20 16:27:39;;;;;;;4.18;1.92;;;21.00;97.30;;;;;;5110969;28;20019;-66
2022/08/20 16:30:08;;;;;;;1.45;1.35;;;20.90;97.30;;;;;;5109927;28;20020;-66
2022/08/20 16:32:40;;;;;;;1.27;1.10;;;21.00;97.20;;;;;;5110270;28;20015;-66
2022/08/20 16:35:24;;;;;;;1.50;1.40;;;21.00;97.20;;;;;;5108314;28;20011;-66
2022/08/20 16:38:00;;;;;;;1.63;1.52;;;20.90;97.10;;;;;;5109999;28;20036;-66
2022/08/20 16:40:33;;;;;;;1.67;1.13;;;21.00;97.10;;;;;;5110016;28;20023;-66
2022/08/20 16:43:03;;;;;;;0.80;0.80;;;21.00;97.10;;;;;;5109675;28;20012;-65
2022/08/20 16:45:31;;;;;;;;;;;20.90;97.00;;;;;;5109332;28;20032;-67
2022/08/20 16:48:03;;;;;;;1.00;0.98;;;21.00;97.00;;;;;;5100069;28;19910;-66
2022/08/20 16:50:51;;;;;;;2.53;1.30;;;20.90;96.90;;;;;;5108233;28;20024;-66
2022/08/20 16:53:20;;;;;;;1.27;1.17;;;20.90;96.90;;;;;;5109686;28;20622;-67
2022/08/20 16:55:46;;;;;;;1.35;1.10;;;20.90;96.80;;;;;;5109776;28;20445;-66
2022/08/20 16:58:11;;;;;;;1.65;1.55;;;20.90;96.80;;;;;;5109373;28;20541;-66
2022/08/20 17:00:38;;;;;;;1.13;1.02;;;21.00;96.80;;;;;;5109953;28;20031;-66
2022/08/20 17:03:28;;;;;;;1.33;1.15;;;20.90;96.80;;;;;;5110041;28;20034;-66
2022/08/20 17:05:57;;;;;;;1.30;1.20;;;20.90;96.70;;;;;;5102983;28;20435;-67
2022/08/20 17:08:29;;;;;;;1.80;1.33;;;20.90;96.70;;;;;;5109538;28;20114;-66
2022/08/20 17:11:00;;;;;;;2.13;1.60;;;20.90;96.70;;;;;;5110109;28;20217;-66
2022/08/20 17:13:35;;;;;;;2.60;1.30;;;20.90;96.60;;;;;;5109278;28;20371;-66
2022/08/20 17:16:13;;;;;;;2.30;1.10;;;20.90;96.60;;;;;;5088632;28;20391;-67
2022/08/20 17:18:42;;;;;;;1.98;1.25;;;20.90;96.60;;;;;;5101262;28;20102;-66
2022/08/20 17:21:31;;;;;;;1.40;1.30;;;20.90;96.50;;;;;;5107880;28;20028;-66
2022/08/20 17:24:09;;;;;;;2.27;1.60;;;20.90;96.50;;;;;;5103820;28;20032;-66
2022/08/20 17:26:40;;;;;;;2.08;1.30;;;20.90;96.50;;;;;;5109232;28;20495;-66
2022/08/20 17:29:16;;;;;;;1.42;1.30;;;20.90;96.40;;;;;;5108996;28;20442;-66
2022/08/20 17:31:49;;;;;;;2.85;1.08;;;20.90;96.40;;;;;;5101704;28;20029;-66
2022/08/20 17:34:22;;;;;;;1.83;0.98;;;20.90;96.40;;;;;;5108483;28;20093;-67
2022/08/20 17:37:26;;;;;;;1.77;1.50;;;20.80;96.30;;;;;;5088807;28;20020;-67
2022/08/20 17:39:55;;;;;;;2.63;1.35;;;20.90;96.30;;;;;;5086579;28;20043;-66
2022/08/20 17:42:24;;;;;;;1.33;1.13;;;20.90;96.30;;;;;;5089020;28;20044;-66
2022/08/20 17:44:53;;;;;;;2.10;1.10;;;20.90;96.20;;;;;;5070766;28;20492;-66
2022/08/20 17:47:29;;;;;;;1.88;0.93;;;20.80;96.20;;;;;;5104281;28;20027;-66
2022/08/20 17:50:01;;;;;;;1.67;1.00;;;20.90;96.20;;;;;;5103222;28;20093;-66
2022/08/20 17:52:33;;;;;;;1.30;1.17;;;20.80;96.10;;;;;;5106237;28;20024;-66
2022/08/20 17:55:01;;;;;;;4.07;1.08;;;20.80;96.10;;;;;;5107960;28;20427;-66
2022/08/20 17:57:35;;;;;;;1.35;1.25;;;20.90;96.10;;;;;;5104803;28;20038;-67
2022/08/20 18:00:06;;;;;;;1.15;1.05;;;20.80;96.00;;;;;;5105591;28;20102;-67
2022/08/20 18:02:32;;;;;;;4.72;1.13;;;20.90;96.10;;;;;;5109444;28;20411;-66
2022/08/20 18:04:59;;;;;;;2.53;1.17;;;20.90;96.10;;;;;;5106847;28;20035;-66
2022/08/20 18:07:30;;;;;;;1.65;1.20;;;20.80;96.00;;;;;;5107460;28;20021;-67
2022/08/20 18:10:17;;;;;;;2.45;1.10;;;20.80;96.00;;;;;;5108384;28;20042;-66
2022/08/20 18:13:05;;;;;;;1.63;1.25;;;20.80;96.00;;;;;;5112857;28;20142;-66
2022/08/20 18:15:36;;;;;;;3.33;1.45;;;20.80;95.90;;;;;;5112247;28;20012;-66
2022/08/20 18:18:39;;;;;;;2.65;1.45;;;20.80;95.90;;;;;;5110095;28;20011;-66
2022/08/20 18:21:20;;;;;;;3.78;1.33;;;20.80;95.80;;;;;;5105859;28;20024;-67
2022/08/20 18:24:04;;;;;;;2.00;1.50;;;20.80;95.80;;;;;;5104585;27;20039;-66
2022/08/20 18:26:35;;;;;;;2.58;1.40;;;20.80;95.80;;;;;;5111871;28;20020;-66
2022/08/20 18:29:17;;;;;;;1.83;1.30;;;20.80;95.80;;;;;;5112542;28;20503;-66
2022/08/20 18:31:50;;;;;;;4.18;1.50;;;20.80;96.10;;;;;;5113984;28;20488;-66
2022/08/20 18:34:19;;;;;;;1.48;1.38;;;20.80;95.80;;;;;;5110274;27;20286;-66
2022/08/20 18:37:05;;;;;;;3.30;1.67;;;20.70;95.80;;;;;;5105888;27;20020;-66
2022/08/20 18:39:32;;;;;;;2.75;1.65;;;20.70;95.80;;;;;;5111073;28;20034;-67
2022/08/20 18:42:04;;;;;;;5.15;1.50;;;20.70;95.80;;;;;;5112904;28;20027;-66
2022/08/20 18:44:39;;;;;;;2.40;1.60;;;20.70;95.90;;;;;;5113119;28;20059;-66
2022/08/20 18:47:18;;;;;;;1.77;1.50;;;20.70;95.90;;;;;;5113290;28;20014;-66
2022/08/20 18:49:43;;;;;;;5.45;1.77;;;20.70;95.90;;;;;;5113574;28;20031;-66
2022/08/20 22:39:40;;;;;;;2.92;1.10;;;20.10;97.20;;;;;;5108305;22;20413;-70
2022/08/20 22:42:06;;;;;;;1.40;1.17;;;20.10;97.20;;;;;;5057968;28;20304;-70
2022/08/20 22:44:31;;;;;;;2.90;1.27;;;20.00;97.20;;;;;;5057001;28;20055;-70
2022/08/20 22:47:01;;;;;;;2.10;1.48;;;20.00;97.60;;;;;;5057257;28;20021;-71
2022/08/20 22:49:30;;;;;;;1.55;1.40;;;20.00;97.20;;;;;;5042269;28;20016;-70
2022/08/20 22:51:56;;;;;;;2.47;1.20;;;20.00;97.20;;;;;;5061067;28;20411;-70
2022/08/20 22:54:22;;;;;;;2.20;1.40;;;20.00;97.30;;;;;;5059346;28;20033;-71
2022/08/20 22:56:49;;;;;;;1.40;1.30;;;20.00;97.30;;;;;;5060564;28;20017;-70
2022/08/20 22:59:15;;;;;;;3.40;1.20;;;20.00;97.30;;;;;;5044947;28;20128;-70
2022/08/20 23:01:41;;;;;;;1.48;1.38;;;20.00;97.30;;;;;;5066630;28;20095;-70
2022/08/20 23:04:31;;;;;;;2.35;1.40;;;20.00;97.30;;;;;;5061723;28;20025;-70
2022/08/20 23:06:58;;;;;;;2.03;1.38;;;20.00;97.30;;;;;;5063917;28;20054;-69
2022/08/20 23:09:24;;;;;;;2.70;1.58;;;20.00;97.30;;;;;;5052675;28;20481;-70
2022/08/20 23:11:50;;;;;;;5.10;1.50;;;20.00;97.30;;;;;;5060601;28;20512;-69
2022/08/20 23:14:16;;;;;;;2.42;1.58;;;20.00;97.30;;;;;;5062242;28;20018;-70
2022/08/20 23:16:46;;;;;;;1.52;1.38;;;20.00;97.30;;;;;;5057830;28;20027;-70
2022/08/20 23:19:17;;;;;;;2.38;1.63;;;20.00;97.30;;;;;;5061083;28;20021;-70
2022/08/20 23:21:42;;;;;;;1.30;1.20;;;20.00;97.30;;;;;;5063973;28;20020;-70
2022/08/20 23:24:08;;;;;;;6.95;1.50;;;20.00;97.30;;;;;;5056168;28;20033;-70
2022/08/20 23:26:34;;;;;;;1.63;1.52;;;20.00;97.30;;;;;;5041972;28;20469;-70
2022/08/20 23:29:00;;;;;;;4.75;1.40;;;20.00;97.40;;;;;;5060352;28;20017;-70
2022/08/20 23:31:25;;;;;;;2.50;1.70;;;19.90;97.30;;;;;;5063205;28;20017;-70
2022/08/20 23:33:51;;;;;;;3.42;1.48;;;19.90;97.30;;;;;;5063271;28;20032;-70
2022/08/20 23:36:19;;;;;;;3.22;1.58;;;20.00;97.40;;;;;;5061384;28;20643;-70
2022/08/20 23:38:44;;;;;;;1.85;1.50;;;19.90;97.30;;;;;;5058628;28;20025;-70
2022/08/20 23:41:10;;;;;;;6.38;1.52;;;19.90;97.30;;;;;;5062514;28;20023;-70
2022/08/20 23:43:37;;;;;;;3.17;1.60;;;19.90;97.30;;;;;;5059895;28;20041;-70
2022/08/20 23:46:05;;;;;;;2.88;1.90;;;19.90;97.40;;;;;;5059172;28;20021;-70
2022/08/20 23:48:31;;;;;;;2.13;1.80;;;19.90;97.30;;;;;;5033480;28;20016;-70
2022/08/20 23:50:57;;;;;;;3.88;1.60;;;19.90;97.40;;;;;;5059809;28;20100;-71
2022/08/20 23:53:22;;;;;;;1.45;1.35;;;19.90;97.40;;;;;;5039645;28;20057;-70
2022/08/20 23:55:48;;;;;;;2.00;1.40;;;19.90;97.40;;;;;;5062764;28;20017;-70
2022/08/20 23:58:14;;;;;;;6.05;1.48;;;19.90;97.40;;;;;;5061599;28;20473;-70
